Time;durP1;ratioP1;P1;durP2;ratioP2;P2;SDS_P1;SDS_P2;PMS_P1;PMS_P2;Temp;Humidity;BMP_temperature;BMP_pressure;BME280_temperature;BME280_humidity;BME280_pressure;Samples;Min_cycle;Max_cycle;Signal;HPM_P1;HPM_P2
2023/04/25 00:00:10;;;;;;;5.15;2.40;;;;;;;7.68;69.48;100083.44;7399761;19;20078;-69
2023/04/25 00:02:38;;;;;;;2.80;2.03;;;;;;;7.67;69.16;100079.94;7399179;19;20018;-69
2023/04/25 00:05:07;;;;;;;5.80;2.45;;;;;;;7.68;69.23;100088.66;7397074;19;20357;-68
2023/04/25 00:07:36;;;;;;;5.00;2.63;;;;;;;7.65;69.22;100085.22;7399427;19;20508;-69
2023/04/25 00:10:10;;;;;;;3.03;2.25;;;;;;;7.65;69.51;100089.59;7399715;19;20082;-69
2023/04/25 00:12:39;;;;;;;5.53;2.40;;;;;;;7.64;69.34;100080.03;7399756;19;20020;-69
2023/04/25 00:15:09;;;;;;;5.90;2.20;;;;;;;7.62;69.33;100082.66;7399453;19;20018;-69
2023/04/25 00:17:38;;;;;;;4.30;2.28;;;;;;;7.61;69.32;100080.09;7399429;19;20025;-69
2023/04/25 00:20:08;;;;;;;2.53;2.22;;;;;;;7.59;69.43;100077.50;7397073;19;20007;-69
2023/04/25 00:22:37;;;;;;;5.55;2.53;;;;;;;7.58;69.46;100080.16;7399394;19;20014;-69
2023/04/25 00:25:09;;;;;;;3.05;2.38;;;;;;;7.55;69.47;100078.44;7397946;19;20070;-69
2023/04/25 00:27:38;;;;;;;3.70;2.80;;;;;;;7.51;69.75;100079.41;7398872;19;20018;-69
2023/04/25 00:30:08;;;;;;;4.13;2.47;;;;;;;7.46;69.74;100076.03;7396414;19;20478;-69
2023/04/25 00:32:37;;;;;;;3.95;2.97;;;;;;;7.41;69.89;100073.50;7398024;19;20010;-69
2023/04/25 00:35:06;;;;;;;4.18;2.67;;;;;;;7.35;70.15;100076.22;7398836;19;20094;-68
2023/04/25 00:37:35;;;;;;;3.80;3.08;;;;;;;7.30;70.42;100075.47;7398803;19;20019;-69
2023/04/25 00:40:05;;;;;;;8.10;3.35;;;;;;;7.22;70.62;100080.81;7396610;19;20018;-69
2023/04/25 00:42:38;;;;;;;5.10;3.13;;;;;;;7.16;71.06;100084.38;7398794;19;20069;-69
2023/04/25 00:45:09;;;;;;;6.43;3.47;;;;;;;7.09;71.11;100080.19;7397139;19;20019;-68
2023/04/25 00:47:38;;;;;;;6.40;3.63;;;;;;;7.04;71.14;100078.53;7398904;19;20081;-69
2023/04/25 00:50:08;;;;;;;4.97;3.47;;;;;;;7.00;71.64;100080.34;7396687;19;20010;-68
2023/04/25 00:52:37;;;;;;;5.30;3.35;;;;;;;6.97;71.73;100081.25;7397975;19;20014;-69
2023/04/25 00:55:06;;;;;;;6.72;4.03;;;;;;;6.94;71.65;100078.72;7397807;19;20078;-68
2023/04/25 00:57:37;;;;;;;4.25;3.38;;;;;;;6.90;71.79;100071.84;7397767;19;20020;-69
2023/04/25 01:00:09;;;;;;;5.80;3.75;;;;;;;6.89;71.94;100075.31;7396520;19;20085;-69
2023/04/25 01:02:38;;;;;;;8.80;3.63;;;;;;;6.85;72.12;100068.47;7397699;19;20019;-69
2023/04/25 01:05:07;;;;;;;5.43;3.90;;;;;;;6.83;72.33;100067.59;7396866;19;20018;-69
2023/04/25 01:07:36;;;;;;;8.35;4.53;;;;;;;6.81;72.24;100061.56;7397450;19;20499;-69
2023/04/25 01:10:05;;;;;;;9.20;4.22;;;;;;;6.76;72.44;100055.56;7397578;19;20025;-69
2023/04/25 01:12:37;;;;;;;6.35;4.05;;;;;;;6.77;72.82;100058.13;7397376;19;20018;-69
2023/04/25 01:15:06;;;;;;;6.22;4.28;;;;;;;6.74;72.71;100058.19;7397223;19;20010;-69
2023/04/25 01:17:36;;;;;;;4.88;4.28;;;;;;;6.73;73.29;100060.84;7397097;19;20037;-69
2023/04/25 01:20:07;;;;;;;7.57;4.68;;;;;;;6.68;73.25;100051.34;7397784;19;20022;-69
2023/04/25 01:22:38;;;;;;;6.57;4.47;;;;;;;6.71;73.34;100054.78;7396630;19;20481;-69
2023/04/25 01:25:14;;;;;;;5.95;4.78;;;;;;;6.71;73.20;100054.78;7396856;19;20074;-68
2023/04/25 01:27:42;;;;;;;11.02;5.78;;;;;;;6.70;73.38;100053.94;7397170;19;20007;-69
2023/04/25 01:30:12;;;;;;;7.60;5.07;;;;;;;6.69;73.56;100060.88;7397122;19;20097;-69
2023/04/25 01:32:40;;;;;;;8.93;5.95;;;;;;;6.68;73.67;100056.56;7396258;19;20494;-69
2023/04/25 01:35:11;;;;;;;7.63;5.65;;;;;;;6.69;73.32;100052.19;7396895;19;20019;-68
2023/04/25 01:37:49;;;;;;;7.47;5.53;;;;;;;6.65;73.37;100051.38;7397200;19;20015;-69
2023/04/25 01:40:18;;;;;;;8.00;5.68;;;;;;;6.69;73.31;100053.06;7397246;19;20097;-69
2023/04/25 01:42:47;;;;;;;9.13;5.68;;;;;;;6.72;73.40;100051.28;7396241;19;20078;-69
2023/04/25 01:45:15;;;;;;;6.50;5.07;;;;;;;6.74;73.33;100054.75;7395739;19;20022;-69
2023/04/25 01:47:48;;;;;;;5.90;4.50;;;;;;;6.74;73.26;100046.91;7396539;19;20014;-69
2023/04/25 01:50:17;;;;;;;9.25;5.55;;;;;;;6.76;72.92;100047.72;7395381;19;20014;-69
2023/04/25 01:52:49;;;;;;;9.05;5.13;;;;;;;6.78;73.12;100049.44;7395948;19;20022;-69
2023/04/25 01:55:17;;;;;;;8.93;5.45;;;;;;;6.79;72.75;100047.69;7395031;19;20371;-69
2023/04/25 01:57:45;;;;;;;11.07;4.82;;;;;;;6.80;72.98;100050.28;7394922;19;20096;-69
2023/04/25 02:00:15;;;;;;;7.78;4.55;;;;;;;6.82;72.85;100052.84;7396125;19;20077;-69
2023/04/25 02:02:44;;;;;;;7.35;4.47;;;;;;;6.83;72.53;100062.41;7395490;19;20018;-69
2023/04/25 02:05:12;;;;;;;9.55;4.65;;;;;;;6.84;72.70;100056.31;7394947;19;20013;-68
2023/04/25 02:07:40;;;;;;;5.82;4.43;;;;;;;6.87;72.67;100061.44;7395257;19;20361;-69
2023/04/25 02:10:12;;;;;;;9.20;4.65;;;;;;;6.87;72.32;100058.84;7397307;19;20021;-69
2023/04/25 02:12:41;;;;;;;6.72;4.60;;;;;;;6.88;72.37;100054.50;7397118;19;20082;-70
2023/04/25 02:15:10;;;;;;;7.35;4.60;;;;;;;6.89;72.36;100062.28;7396103;19;20018;-69
2023/04/25 02:17:39;;;;;;;6.00;4.72;;;;;;;6.89;72.06;100059.69;7395054;19;20014;-69
2023/04/25 02:20:08;;;;;;;5.90;4.22;;;;;;;6.85;72.24;100058.88;7395129;19;20017;-69
2023/04/25 02:22:37;;;;;;;7.03;4.47;;;;;;;6.83;72.34;100055.41;7395068;19;20023;-69
2023/04/25 02:25:06;;;;;;;7.63;4.93;;;;;;;6.81;72.30;100054.59;7393492;19;20018;-69
2023/04/25 02:27:37;;;;;;;8.85;5.10;;;;;;;6.77;72.32;100057.28;7394936;19;20019;-69
2023/04/25 02:30:07;;;;;;;7.53;4.68;;;;;;;6.74;72.45;100058.19;7393872;19;20025;-69
2023/04/25 02:32:36;;;;;;;8.13;5.05;;;;;;;6.72;72.27;100056.50;7394914;19;20015;-70
2023/04/25 02:35:05;;;;;;;8.68;4.93;;;;;;;6.67;72.26;100060.06;7394558;19;20490;-69
2023/04/25 02:37:34;;;;;;;9.73;4.95;;;;;;;6.65;72.29;100055.75;7394411;19;20021;-68
2023/04/25 02:40:03;;;;;;;7.30;4.50;;;;;;;6.61;72.32;100057.53;7394147;19;20074;-68
2023/04/25 02:42:31;;;;;;;6.93;4.97;;;;;;;6.59;72.31;100058.47;7394576;19;20018;-68
2023/04/25 02:45:02;;;;;;;5.38;4.80;;;;;;;6.56;72.31;100051.56;7394034;19;20011;-68
2023/04/25 02:47:31;;;;;;;7.90;4.93;;;;;;;6.55;72.52;100051.59;7395230;19;20031;-69
2023/04/25 02:49:59;;;;;;;7.25;5.25;;;;;;;6.53;72.51;100048.97;7392029;19;20011;-68
2023/04/25 02:52:27;;;;;;;9.20;5.53;;;;;;;6.51;72.28;100040.34;7394388;19;20143;-68
2023/04/25 02:54:56;;;;;;;6.15;4.50;;;;;;;6.50;72.56;100044.69;7394395;19;20097;-68
2023/04/25 02:57:24;;;;;;;8.95;4.97;;;;;;;6.49;72.78;100047.31;7394549;19;20015;-68
2023/04/25 02:59:53;;;;;;;7.45;5.18;;;;;;;6.48;72.67;100048.19;7394081;19;20022;-68
2023/04/25 03:02:24;;;;;;;6.63;5.35;;;;;;;6.47;72.71;100046.47;7392324;19;20082;-68
2023/04/25 03:04:53;;;;;;;7.75;4.88;;;;;;;6.47;72.72;100042.13;7392341;19;20042;-68
2023/04/25 03:07:22;;;;;;;8.82;5.20;;;;;;;6.46;72.74;100034.34;7394143;19;20026;-68
2023/04/25 03:09:50;;;;;;;13.25;6.47;;;;;;;6.47;72.88;100041.25;7400130;19;20030;-69
2023/04/25 03:12:18;;;;;;;14.48;8.95;;;;;;;6.46;72.82;100035.19;7401382;19;20025;-68
2023/04/25 03:14:47;;;;;;;12.35;6.97;;;;;;;6.46;72.86;100037.81;7398113;19;20011;-68
2023/04/25 03:17:15;;;;;;;9.45;5.40;;;;;;;6.45;72.64;100030.00;7400896;19;20020;-69
2023/04/25 03:19:46;;;;;;;7.32;4.82;;;;;;;6.45;72.81;100032.63;7401298;19;20026;-68
2023/04/25 03:22:15;;;;;;;12.05;5.70;;;;;;;6.44;72.74;100028.28;7401117;19;20545;-68
2023/04/25 03:24:43;;;;;;;7.63;5.25;;;;;;;6.44;72.83;100031.75;7398424;19;20018;-68
2023/04/25 03:27:12;;;;;;;8.50;5.10;;;;;;;6.43;73.08;100029.16;7398429;19;20023;-68
2023/04/25 03:29:40;;;;;;;10.60;5.57;;;;;;;6.42;73.04;100036.13;7398328;19;20014;-68
2023/04/25 03:32:09;;;;;;;9.18;5.60;;;;;;;6.42;73.06;100035.25;7398015;19;20010;-68
2023/04/25 03:34:37;;;;;;;12.98;5.45;;;;;;;6.42;72.89;100038.75;7398142;19;20042;-68
2023/04/25 03:37:08;;;;;;;10.00;5.53;;;;;;;6.43;73.05;100039.59;7400484;19;20090;-68
2023/04/25 03:39:37;;;;;;;8.65;5.32;;;;;;;6.44;73.16;100041.31;7398045;19;20102;-68
2023/04/25 03:42:06;;;;;;;7.55;5.22;;;;;;;6.43;73.00;100036.97;7397630;19;20022;-70
2023/04/25 03:44:34;;;;;;;7.90;5.20;;;;;;;6.43;73.09;100050.91;7397595;19;20385;-68
2023/04/25 03:47:03;;;;;;;8.20;5.45;;;;;;;6.42;73.25;100038.75;7397774;19;20018;-68
2023/04/25 03:49:31;;;;;;;8.95;4.65;;;;;;;6.42;73.22;100040.47;7396951;19;20014;-69
2023/04/25 03:52:09;;;;;;;6.47;4.85;;;;;;;6.43;73.15;100052.63;7397666;19;20070;-68
2023/04/25 03:54:37;;;;;;;8.40;5.32;;;;;;;6.44;73.49;100051.75;7397369;19;20019;-68
2023/04/25 03:57:05;;;;;;;10.18;5.38;;;;;;;6.45;73.22;100063.88;7400032;19;20015;-68
2023/04/25 03:59:34;;;;;;;5.95;4.68;;;;;;;6.46;73.29;100052.59;7399614;19;20014;-68
2023/04/25 04:02:02;;;;;;;6.57;4.50;;;;;;;6.46;73.20;100056.03;7399416;19;20027;-69
2023/04/25 04:04:31;;;;;;;8.18;4.72;;;;;;;6.47;73.32;100056.88;7396815;19;20090;-69
2023/04/25 04:06:59;;;;;;;7.93;4.68;;;;;;;6.47;73.03;100055.16;7397429;19;20017;-69
2023/04/25 04:09:30;;;;;;;7.68;4.57;;;;;;;6.50;73.21;100056.84;7400005;19;20093;-69
2023/04/25 04:11:58;;;;;;;11.35;4.70;;;;;;;6.53;73.17;100067.22;7397621;19;20019;-69
2023/04/25 04:14:27;;;;;;;11.13;4.85;;;;;;;6.55;73.23;100062.00;7397567;19;20086;-69
2023/04/25 04:16:55;;;;;;;9.50;4.70;;;;;;;6.58;73.01;100062.78;7399164;19;20078;-68
2023/04/25 04:19:24;;;;;;;7.25;4.53;;;;;;;6.61;72.77;100067.09;7398050;19;20070;-68
2023/04/25 04:21:52;;;;;;;9.32;4.68;;;;;;;6.64;72.59;100072.28;7396247;19;20426;-68
2023/04/25 04:24:21;;;;;;;7.65;4.47;;;;;;;6.67;72.63;100062.66;7397146;19;20086;-68
2023/04/25 04:26:52;;;;;;;9.48;4.90;;;;;;;6.72;72.53;100069.53;7397504;19;20074;-68
2023/04/25 04:29:22;;;;;;;9.18;5.03;;;;;;;6.75;72.21;100074.69;7398668;19;20352;-68
2023/04/25 04:31:52;;;;;;;9.65;5.63;;;;;;;6.77;72.36;100071.16;7398388;19;20506;-68
2023/04/25 04:34:20;;;;;;;9.95;4.95;;;;;;;6.80;72.03;100070.28;7396029;19;20014;-68
2023/04/25 04:36:49;;;;;;;9.43;6.05;;;;;;;6.83;72.23;100067.59;7398502;19;20014;-68
2023/04/25 04:39:17;;;;;;;8.80;5.38;;;;;;;6.85;71.96;100071.06;7398049;19;20481;-69
2023/04/25 04:41:46;;;;;;;8.57;5.10;;;;;;;6.87;72.10;100076.25;7398334;19;20017;-68
2023/04/25 04:44:17;;;;;;;7.72;4.93;;;;;;;6.88;71.96;100070.16;7396363;19;20030;-68
2023/04/25 04:46:46;;;;;;;10.70;5.03;;;;;;;6.91;71.73;100073.53;7396800;19;20082;-69
2023/04/25 04:49:15;;;;;;;9.02;5.75;;;;;;;6.94;71.62;100075.25;7398590;19;20015;-69
2023/04/25 04:51:44;;;;;;;7.82;5.15;;;;;;;6.97;71.79;100083.00;7396433;19;20021;-69
2023/04/25 04:54:12;;;;;;;7.40;4.85;;;;;;;6.97;71.66;100080.41;7396184;19;20022;-69
2023/04/25 04:56:41;;;;;;;8.73;4.65;;;;;;;7.00;71.63;100083.81;7396954;19;20089;-68
2023/04/25 04:59:10;;;;;;;8.55;4.90;;;;;;;7.03;71.56;100082.03;7396821;19;20014;-71
2023/04/25 05:01:41;;;;;;;10.07;5.35;;;;;;;7.05;71.35;100091.59;7394454;19;20015;-68
2023/04/25 05:04:09;;;;;;;8.40;4.68;;;;;;;7.08;71.31;100080.22;7395502;19;20010;-68
2023/04/25 05:06:38;;;;;;;8.73;5.07;;;;;;;7.07;71.44;100081.97;7395911;19;20082;-68
2023/04/25 05:09:06;;;;;;;11.02;4.55;;;;;;;7.08;71.42;100091.50;7396169;19;20090;-69
2023/04/25 05:11:34;;;;;;;9.38;4.68;;;;;;;7.08;71.33;100090.66;7394279;19;20428;-69
2023/04/25 05:14:03;;;;;;;7.82;4.70;;;;;;;7.06;71.42;100082.84;7395471;19;20158;-69
2023/04/25 05:16:31;;;;;;;7.18;4.47;;;;;;;7.08;71.25;100090.66;7396264;19;20548;-68
2023/04/25 05:19:02;;;;;;;11.20;5.05;;;;;;;7.11;71.38;100083.63;7394335;19;20074;-69
2023/04/25 05:21:31;;;;;;;8.95;5.38;;;;;;;7.15;71.26;100077.47;7396429;19;20349;-67
2023/04/25 05:24:00;;;;;;;7.88;4.47;;;;;;;7.19;71.13;100078.28;7394938;19;20035;-67
2023/04/25 05:26:30;;;;;;;8.05;4.25;;;;;;;7.23;71.08;100084.28;7395751;19;20082;-67
2023/04/25 05:28:59;;;;;;;8.43;4.95;;;;;;;7.26;70.86;100087.69;7395587;19;20018;-67
2023/04/25 05:31:28;;;;;;;8.48;4.35;;;;;;;7.29;70.61;100087.66;7394632;19;20031;-67
2023/04/25 05:33:56;;;;;;;6.20;4.78;;;;;;;7.32;70.59;100082.38;7394231;19;20018;-66
2023/04/25 05:36:28;;;;;;;13.25;4.85;;;;;;;7.36;70.45;100095.38;7396213;19;20101;-65
2023/04/25 05:38:56;;;;;;;7.18;4.07;;;;;;;7.38;70.45;100084.03;7396724;19;20042;-66
2023/04/25 05:41:25;;;;;;;12.88;5.38;;;;;;;7.44;70.46;100102.19;7396439;19;20166;-66
2023/04/25 05:43:53;;;;;;;8.02;3.83;;;;;;;7.47;70.12;100103.88;7394431;19;20086;-67
2023/04/25 05:46:21;;;;;;;8.85;5.38;;;;;;;7.49;70.10;100097.72;7395262;19;20015;-67
2023/04/25 05:48:50;;;;;;;9.15;4.10;;;;;;;7.54;69.98;100101.97;7395782;19;20011;-67
2023/04/25 05:51:18;;;;;;;7.97;4.70;;;;;;;7.56;69.81;100103.69;7394616;19;20077;-67
2023/04/25 05:53:49;;;;;;;13.82;4.65;;;;;;;7.56;69.62;100103.69;7393653;19;20485;-67
2023/04/25 05:56:18;;;;;;;11.45;4.22;;;;;;;7.56;69.72;100098.44;7394663;19;20014;-68
2023/04/25 05:58:47;;;;;;;11.43;4.47;;;;;;;7.59;69.66;100095.78;7395775;19;20018;-67
2023/04/25 06:01:15;;;;;;;9.57;4.53;;;;;;;7.60;69.66;100089.66;7395728;19;20028;-67
2023/04/25 06:03:44;;;;;;;11.05;5.10;;;;;;;7.62;69.49;100095.72;7394002;19;20018;-68
2023/04/25 06:06:14;;;;;;;9.68;4.35;;;;;;;7.65;69.70;100095.66;7395331;19;20014;-67
2023/04/25 06:08:42;;;;;;;7.78;4.20;;;;;;;7.66;69.46;100105.22;7395172;19;20025;-67
2023/04/25 06:11:13;;;;;;;18.77;5.22;;;;;;;7.69;69.23;100100.81;7395022;19;20074;-67
2023/04/25 06:13:42;;;;;;;8.55;4.40;;;;;;;7.73;69.52;100099.88;7395202;19;20029;-65
2023/04/25 06:16:10;;;;;;;13.70;4.97;;;;;;;7.80;69.43;100102.31;7395719;19;20073;-66
2023/04/25 06:18:39;;;;;;;12.70;5.70;;;;;;;7.87;69.39;100096.97;7393351;19;20010;-65
2023/04/25 06:21:07;;;;;;;10.75;4.78;;;;;;;7.96;69.02;100115.03;7395506;19;20018;-67
2023/04/25 06:23:35;;;;;;;10.98;4.90;;;;;;;7.99;68.87;100115.00;7392989;19;20074;-67
2023/04/25 06:26:04;;;;;;;9.27;5.07;;;;;;;7.99;69.01;100118.47;7394338;19;20025;-67
2023/04/25 06:28:35;;;;;;;11.50;4.85;;;;;;;7.99;68.72;100121.06;7394648;19;20018;-67
2023/04/25 06:31:03;;;;;;;9.50;5.25;;;;;;;7.98;68.91;100110.66;7394819;19;20151;-68
2023/04/25 06:33:32;;;;;;;10.90;5.10;;;;;;;8.01;69.19;100110.59;7393458;19;20054;-67
2023/04/25 06:36:00;;;;;;;9.88;4.95;;;;;;;8.07;69.20;100117.44;7392420;19;20437;-67
2023/04/25 06:38:28;;;;;;;12.77;5.25;;;;;;;8.12;69.42;100119.06;7392485;19;20019;-66
2023/04/25 06:40:57;;;;;;;11.65;5.88;;;;;;;8.12;69.14;100132.13;7394416;19;20017;-69
2023/04/25 06:43:25;;;;;;;10.05;5.43;;;;;;;8.15;69.08;100118.13;7397299;19;20086;-69
2023/04/25 06:45:56;;;;;;;13.88;5.78;;;;;;;8.13;69.17;100119.94;7401703;19;20011;-69
2023/04/25 06:48:25;;;;;;;11.57;6.20;;;;;;;8.14;69.22;100127.72;7400386;19;20015;-69
2023/04/25 06:50:53;;;;;;;8.57;4.95;;;;;;;8.15;69.00;100119.00;7399607;19;20090;-69
2023/04/25 06:53:22;;;;;;;10.15;5.30;;;;;;;8.16;69.11;100132.91;7400091;19;20435;-69
2023/04/25 06:55:50;;;;;;;10.27;5.25;;;;;;;8.21;68.86;100125.84;7398792;19;20018;-70
2023/04/25 06:58:19;;;;;;;9.27;5.10;;;;;;;8.24;68.57;100128.41;7401254;19;20018;-68
2023/04/25 07:00:47;;;;;;;10.95;6.20;;;;;;;8.28;68.79;100118.75;7401063;19;20425;-69
2023/04/25 07:03:18;;;;;;;9.73;5.30;;;;;;;8.29;68.53;100137.00;7398245;19;20077;-70
2023/04/25 07:05:47;;;;;;;9.93;5.82;;;;;;;8.33;68.59;100129.94;7400412;19;20071;-68
2023/04/25 07:08:16;;;;;;;10.63;5.13;;;;;;;8.36;68.72;100129.88;7397470;19;20054;-68
2023/04/25 07:10:45;;;;;;;7.78;5.40;;;;;;;8.41;68.37;100120.16;7397157;19;20086;-69
2023/04/25 07:13:14;;;;;;;9.05;5.28;;;;;;;8.46;68.39;100133.16;7396623;19;20647;-70
2023/04/25 07:15:42;;;;;;;9.32;5.18;;;;;;;8.49;68.25;100127.84;7400123;19;20037;-69
2023/04/25 07:18:11;;;;;;;7.97;5.43;;;;;;;8.49;68.00;100140.94;7399962;19;20018;-71
2023/04/25 07:20:42;;;;;;;7.43;4.35;;;;;;;8.45;68.10;100137.53;7397580;19;20015;-69
2023/04/25 07:23:10;;;;;;;7.57;4.57;;;;;;;8.46;68.22;100148.84;7397918;19;20021;-69
2023/04/25 07:25:39;;;;;;;10.10;4.75;;;;;;;8.43;68.31;100141.06;7398109;19;20019;-69
2023/04/25 07:28:07;;;;;;;8.75;4.35;;;;;;;8.47;68.52;100146.19;7398685;19;20021;-69
2023/04/25 07:30:36;;;;;;;6.85;4.65;;;;;;;8.45;68.83;100162.78;7400193;19;20090;-68
2023/04/25 07:33:05;;;;;;;8.60;4.65;;;;;;;8.44;68.77;100150.59;7399294;19;20015;-68
2023/04/25 07:35:33;;;;;;;8.13;4.78;;;;;;;8.44;68.86;100161.06;7400150;19;20029;-69
2023/04/25 07:38:10;;;;;;;7.32;4.50;;;;;;;8.38;69.50;100145.50;7400392;19;20024;-69
2023/04/25 07:40:39;;;;;;;6.85;4.93;;;;;;;8.29;69.88;100160.50;7399706;19;20016;-68
2023/04/25 07:43:07;;;;;;;7.93;4.30;;;;;;;8.24;70.22;100182.41;7399330;19;20018;-68
2023/04/25 07:45:36;;;;;;;6.60;3.83;;;;;;;8.17;70.31;100189.50;7399657;19;20025;-69
2023/04/25 07:48:05;;;;;;;9.52;4.80;;;;;;;8.13;70.98;100180.03;7397653;19;20018;-69
2023/04/25 07:50:33;;;;;;;4.88;4.30;;;;;;;8.11;71.30;100184.41;7397397;19;20011;-69
2023/04/25 07:53:05;;;;;;;9.15;5.35;;;;;;;8.07;72.52;100190.59;7398584;19;20584;-69
2023/04/25 07:55:33;;;;;;;8.27;4.25;;;;;;;8.02;72.82;100195.06;7398524;19;20019;-69
2023/04/25 07:58:01;;;;;;;8.23;4.70;;;;;;;7.92;73.95;100190.03;7399406;19;20544;-69
2023/04/25 08:00:31;;;;;;;7.57;4.88;;;;;;;7.80;76.20;100193.72;7399863;19;20478;-69
2023/04/25 08:02:59;;;;;;;8.23;5.25;;;;;;;7.69;77.84;100203.50;7398570;19;20025;-68
2023/04/25 08:05:28;;;;;;;9.30;5.57;;;;;;;7.58;77.49;100208.94;7396948;19;20019;-68
2023/04/25 08:07:56;;;;;;;12.57;5.30;;;;;;;7.50;79.04;100216.03;7396898;19;20023;-68
2023/04/25 08:10:27;;;;;;;9.77;5.60;;;;;;;7.40;79.95;100207.50;7399471;19;20018;-68
2023/04/25 08:12:56;;;;;;;11.68;5.25;;;;;;;7.32;80.56;100209.38;7399258;19;20541;-67
2023/04/25 08:15:25;;;;;;;18.85;6.30;;;;;;;7.25;81.01;100219.03;7398615;19;20078;-68
2023/04/25 08:17:53;;;;;;;13.88;6.05;;;;;;;7.21;81.60;100208.69;7398803;19;20039;-68
2023/04/25 08:20:22;;;;;;;13.20;6.30;;;;;;;7.16;82.75;100219.22;7398816;19;20014;-68
2023/04/25 08:22:50;;;;;;;11.77;5.05;;;;;;;7.12;82.99;100227.97;7398004;19;20366;-68
2023/04/25 08:25:19;;;;;;;16.15;6.00;;;;;;;7.06;83.65;100241.97;7399226;19;20378;-68
2023/04/25 08:27:50;;;;;;;14.30;5.20;;;;;;;7.03;83.78;100222.88;7397550;19;20373;-69
2023/04/25 08:30:18;;;;;;;14.95;7.18;;;;;;;7.05;84.42;100231.56;7398514;19;20022;-67
2023/04/25 08:32:53;;;;;;;12.45;6.28;;;;;;;7.10;84.33;100232.34;7397329;19;20417;-68
2023/04/25 08:35:22;;;;;;;12.35;5.55;;;;;;;7.12;84.71;100226.22;7398198;19;20486;-68
2023/04/25 08:37:51;;;;;;;13.32;6.38;;;;;;;7.23;84.68;100243.44;7397703;19;20380;-68
2023/04/25 08:40:25;;;;;;;12.60;5.63;;;;;;;7.29;84.27;100231.19;7398646;19;20015;-68
2023/04/25 08:42:57;;;;;;;;;;;;;;;7.35;83.50;100243.25;7398943;19;20010;-69
2023/04/25 08:45:27;;;;;;;14.15;5.32;;;;;;;7.39;82.47;100242.31;7398944;19;19941;-68
2023/04/25 08:47:56;;;;;;;19.58;5.75;;;;;;;7.47;82.78;100237.81;7395421;19;20010;-68
2023/04/25 08:50:26;;;;;;;13.07;5.13;;;;;;;7.59;83.34;100255.03;7396666;19;20015;-69
2023/04/25 08:53:02;;;;;;;18.20;4.85;;;;;;;7.68;82.15;100255.75;7395691;19;20082;-68
2023/04/25 08:55:32;;;;;;;9.65;4.53;;;;;;;7.75;81.79;100258.22;7398330;19;20015;-69
2023/04/25 08:58:04;;;;;;;7.97;4.30;;;;;;;7.80;80.42;100259.00;7397693;19;20070;-69
2023/04/25 09:00:32;;;;;;;13.23;4.20;;;;;;;7.83;80.34;100279.00;7398117;19;20019;-68
2023/04/25 09:03:01;;;;;;;15.05;5.07;;;;;;;7.83;79.17;100264.19;7397551;19;20026;-69
2023/04/25 09:05:31;;;;;;;12.32;4.38;;;;;;;7.86;80.22;100265.00;7397644;19;20025;-68
2023/04/25 09:08:00;;;;;;;16.98;5.85;;;;;;;7.92;80.54;100268.38;7396305;19;20018;-69
2023/04/25 09:10:29;;;;;;;15.55;4.32;;;;;;;7.96;77.41;100263.94;7396404;19;20083;-69
2023/04/25 09:13:08;;;;;;;10.75;3.65;;;;;;;8.04;74.24;100279.47;7396267;19;20018;-70
2023/04/25 09:15:51;;;;;;;11.40;3.45;;;;;;;8.16;75.17;100287.09;7396178;19;20015;-69
2023/04/25 09:18:27;;;;;;;15.38;2.88;;;;;;;8.27;70.26;100279.91;7396955;19;20028;-70
2023/04/25 09:20:56;;;;;;;15.60;3.20;;;;;;;8.39;71.59;100273.59;7395091;19;20018;-68
2023/04/25 09:23:25;;;;;;;14.20;3.15;;;;;;;8.51;71.99;100269.88;7395818;19;20015;-68
2023/04/25 09:25:55;;;;;;;19.13;4.05;;;;;;;8.64;69.95;100273.09;7395255;19;20018;-67
2023/04/25 09:28:30;;;;;;;14.80;3.10;;;;;;;8.72;64.84;100275.53;7395811;19;20159;-67
2023/04/25 09:30:59;;;;;;;;;;;;;;;8.82;65.07;100277.09;7395598;19;20090;-68
2023/04/25 09:33:32;;;;;;;11.80;2.50;;;;;;;8.92;65.82;100268.13;7395045;19;19914;-69
2023/04/25 09:36:05;;;;;;;17.30;3.78;;;;;;;9.02;62.26;100270.53;7394786;19;20018;-69
2023/04/25 09:38:42;;;;;;;14.57;3.47;;;;;;;9.12;65.46;100285.13;7395209;19;20095;-69
2023/04/25 09:41:11;;;;;;;11.07;2.65;;;;;;;9.18;62.77;100286.75;7395879;19;20018;-67
2023/04/25 09:43:42;;;;;;;12.15;2.47;;;;;;;9.21;60.84;100291.91;7394479;19;20041;-68
2023/04/25 09:46:12;;;;;;;9.13;2.60;;;;;;;9.20;59.67;100298.91;7396524;19;20078;-70
2023/04/25 09:48:40;;;;;;;11.85;2.97;;;;;;;9.15;57.78;100290.31;7394298;19;20014;-68
2023/04/25 09:51:22;;;;;;;11.50;2.67;;;;;;;9.12;55.45;100300.81;7394459;19;20349;-69
2023/04/25 09:53:52;;;;;;;13.23;3.17;;;;;;;9.19;60.64;100299.78;7395101;19;20035;-68
2023/04/25 09:56:22;;;;;;;10.20;2.45;;;;;;;9.21;56.62;100311.09;7395696;19;20019;-68
2023/04/25 09:58:56;;;;;;;14.02;3.30;;;;;;;9.21;58.17;100302.38;7395625;19;20029;-68
2023/04/25 10:01:25;;;;;;;14.30;2.80;;;;;;;9.18;58.60;100316.38;7396200;19;20010;-69
2023/04/25 10:03:58;;;;;;;14.23;3.13;;;;;;;9.09;56.74;100322.69;7394165;19;20114;-70
2023/04/25 10:06:28;;;;;;;14.10;3.15;;;;;;;9.07;59.30;100315.75;7395701;19;20070;-68
2023/04/25 10:08:58;;;;;;;12.40;2.97;;;;;;;9.03;60.08;100322.81;7393656;19;20015;-69
2023/04/25 10:11:28;;;;;;;13.88;3.50;;;;;;;9.03;60.54;100312.34;7394973;19;20017;-69
2023/04/25 10:14:00;;;;;;;14.40;3.30;;;;;;;9.04;58.73;100327.16;7394780;19;20018;-69
2023/04/25 10:16:29;;;;;;;15.23;3.20;;;;;;;9.09;60.01;100314.00;7395377;19;20011;-68
2023/04/25 10:18:58;;;;;;;17.27;2.80;;;;;;;9.14;57.55;100325.22;7392200;19;20023;-68
2023/04/25 10:21:30;;;;;;;14.45;2.80;;;;;;;9.21;59.20;100305.88;7394387;19;20086;-69
2023/04/25 10:23:59;;;;;;;13.70;3.33;;;;;;;9.26;59.34;100314.47;7393684;19;20014;-69
2023/04/25 10:26:28;;;;;;;13.57;2.63;;;;;;;9.33;57.54;100312.56;7394292;19;20481;-69
2023/04/25 10:29:03;;;;;;;17.65;4.10;;;;;;;9.39;56.10;100322.88;7394551;19;20481;-70
2023/04/25 10:31:33;;;;;;;10.38;2.88;;;;;;;9.46;56.93;100326.22;7397138;19;20074;-70
2023/04/25 10:34:03;;;;;;;11.50;2.53;;;;;;;9.57;58.12;100316.34;7394303;19;20015;-70
2023/04/25 10:36:34;;;;;;;10.65;2.72;;;;;;;9.61;57.17;100328.44;7395206;19;20036;-69
2023/04/25 10:39:08;;;;;;;13.75;3.08;;;;;;;9.69;57.68;100325.69;7394920;19;20046;-69
2023/04/25 10:41:50;;;;;;;12.18;2.58;;;;;;;9.71;54.26;100323.00;7395150;19;20013;-69
2023/04/25 10:44:21;;;;;;;13.23;3.90;;;;;;;9.69;55.15;100330.91;7393024;19;20023;-68
2023/04/25 10:46:50;;;;;;;11.50;3.47;;;;;;;9.67;56.50;100335.31;7393903;19;20018;-70
2023/04/25 10:49:33;;;;;;;13.77;3.60;;;;;;;9.60;52.30;100339.84;7392593;19;20010;-69
2023/04/25 10:52:17;;;;;;;11.20;4.18;;;;;;;9.60;52.74;100331.13;7391673;19;20485;-69
2023/04/25 10:54:49;;;;;;;8.93;2.72;;;;;;;9.64;54.81;100334.53;7392432;19;20091;-70
2023/04/25 10:57:39;;;;;;;12.27;3.53;;;;;;;9.67;52.74;100331.81;7392985;19;20074;-70
2023/04/25 11:00:14;;;;;;;9.82;2.55;;;;;;;9.64;51.29;100324.06;7394584;19;20019;-70
2023/04/25 11:02:51;;;;;;;9.55;2.65;;;;;;;9.63;53.24;100331.06;7393941;19;20139;-72
2023/04/25 11:05:25;;;;;;;8.43;3.03;;;;;;;9.62;52.92;100332.81;7394723;19;20018;-68
2023/04/25 11:07:57;;;;;;;12.98;2.65;;;;;;;9.64;51.91;100340.63;7392970;19;20021;-68
2023/04/25 11:10:29;;;;;;;11.18;2.40;;;;;;;9.59;50.75;100338.13;7391422;19;20010;-69
2023/04/25 11:12:57;;;;;;;9.73;2.92;;;;;;;9.58;49.12;100341.63;7393458;19;20019;-69
2023/04/25 11:15:29;;;;;;;9.05;2.08;;;;;;;9.60;50.77;100333.75;7392072;19;20037;-68
2023/04/25 11:17:58;;;;;;;9.13;2.75;;;;;;;9.66;51.94;100343.22;7391570;19;20014;-68
2023/04/25 11:20:29;;;;;;;13.63;3.38;;;;;;;9.68;51.72;100339.66;7393161;19;20094;-69
2023/04/25 11:23:00;;;;;;;15.07;3.35;;;;;;;9.69;52.68;100346.63;7392893;19;20025;-69
2023/04/25 11:25:29;;;;;;;12.75;3.10;;;;;;;9.57;51.19;100360.88;7393824;19;20022;-70
2023/04/25 11:28:00;;;;;;;12.07;3.10;;;;;;;9.51;52.35;100357.53;7392571;19;20021;-69
2023/04/25 11:30:31;;;;;;;18.10;2.72;;;;;;;9.47;49.98;100363.75;7397916;19;20014;-69
2023/04/25 11:33:00;;;;;;;8.38;2.50;;;;;;;9.32;50.27;100365.81;7399835;19;20091;-69
2023/04/25 11:35:28;;;;;;;10.82;2.75;;;;;;;9.27;51.79;100358.06;7400401;19;20019;-69
2023/04/25 11:37:57;;;;;;;7.78;2.53;;;;;;;9.25;52.56;100378.19;7396987;19;20082;-70
2023/04/25 11:40:25;;;;;;;7.53;2.88;;;;;;;9.26;52.62;100379.03;7400075;19;20078;-68
2023/04/25 11:42:54;;;;;;;12.35;2.67;;;;;;;9.28;52.37;100377.25;7399162;19;20081;-70